sensor_id;sensor_type;location;lat;lon;timestamp;P1;durP1;ratioP1;P2;durP2;ratioP2
32693;SDS011;19084;44.716;10.218;2022-07-29T00:00:03;21.92;;;16.50;;
32693;SDS011;19084;44.716;10.218;2022-07-29T00:02:36;19.60;;;16.60;;
32693;SDS011;19084;44.716;10.218;2022-07-29T00:05:10;20.08;;;16.60;;
32693;SDS011;19084;44.716;10.218;2022-07-29T00:10:18;20.88;;;16.38;;
32693;SDS011;19084;44.716;10.218;2022-07-29T00:12:52;20.70;;;16.60;;
32693;SDS011;19084;44.716;10.218;2022-07-29T00:15:26;22.17;;;16.95;;
32693;SDS011;19084;44.716;10.218;2022-07-29T00:17:59;19.98;;;16.77;;
32693;SDS011;19084;44.716;10.218;2022-07-29T00:20:34;20.05;;;16.05;;
32693;SDS011;19084;44.716;10.218;2022-07-29T00:23:07;23.83;;;18.30;;
32693;SDS011;19084;44.716;10.218;2022-07-29T00:25:44;18.10;;;15.15;;
32693;SDS011;19084;44.716;10.218;2022-07-29T00:28:17;21.58;;;17.23;;
32693;SDS011;19084;44.716;10.218;2022-07-29T00:30:50;22.40;;;17.35;;
32693;SDS011;19084;44.716;10.218;2022-07-29T00:33:26;22.33;;;17.70;;
32693;SDS011;19084;44.716;10.218;2022-07-29T00:36:01;20.15;;;17.75;;
32693;SDS011;19084;44.716;10.218;2022-07-29T00:38:35;23.58;;;18.10;;
32693;SDS011;19084;44.716;10.218;2022-07-29T00:41:08;22.92;;;18.30;;
32693;SDS011;19084;44.716;10.218;2022-07-29T00:43:41;21.83;;;16.90;;
32693;SDS011;19084;44.716;10.218;2022-07-29T00:46:15;25.65;;;18.63;;
32693;SDS011;19084;44.716;10.218;2022-07-29T00:51:23;22.90;;;18.23;;
32693;SDS011;19084;44.716;10.218;2022-07-29T00:53:58;20.23;;;16.77;;
32693;SDS011;19084;44.716;10.218;2022-07-29T00:56:32;20.52;;;17.23;;
32693;SDS011;19084;44.716;10.218;2022-07-29T00:59:05;20.85;;;17.63;;
32693;SDS011;19084;44.716;10.218;2022-07-29T01:01:38;20.83;;;17.20;;
32693;SDS011;19084;44.716;10.218;2022-07-29T01:04:11;20.27;;;17.40;;
32693;SDS011;19084;44.716;10.218;2022-07-29T01:06:48;18.67;;;16.75;;
32693;SDS011;19084;44.716;10.218;2022-07-29T01:09:22;18.70;;;16.30;;
32693;SDS011;19084;44.716;10.218;2022-07-29T01:12:18;19.00;;;16.92;;
32693;SDS011;19084;44.716;10.218;2022-07-29T01:14:57;20.02;;;17.20;;
32693;SDS011;19084;44.716;10.218;2022-07-29T01:20:48;22.00;;;17.52;;
32693;SDS011;19084;44.716;10.218;2022-07-29T01:30:36;21.33;;;17.90;;
32693;SDS011;19084;44.716;10.218;2022-07-29T01:33:15;21.67;;;16.63;;
32693;SDS011;19084;44.716;10.218;2022-07-29T01:36:10;19.15;;;17.17;;
32693;SDS011;19084;44.716;10.218;2022-07-29T01:38:50;23.67;;;17.90;;
32693;SDS011;19084;44.716;10.218;2022-07-29T01:41:25;18.33;;;16.08;;
32693;SDS011;19084;44.716;10.218;2022-07-29T01:44:02;21.58;;;17.65;;
32693;SDS011;19084;44.716;10.218;2022-07-29T01:46:41;24.65;;;18.45;;
32693;SDS011;19084;44.716;10.218;2022-07-29T01:49:18;21.40;;;18.40;;
32693;SDS011;19084;44.716;10.218;2022-07-29T01:51:54;20.52;;;18.27;;
32693;SDS011;19084;44.716;10.218;2022-07-29T01:54:35;21.95;;;19.00;;
32693;SDS011;19084;44.716;10.218;2022-07-29T01:57:18;21.10;;;17.80;;
32693;SDS011;19084;44.716;10.218;2022-07-29T01:59:53;21.08;;;18.35;;
32693;SDS011;19084;44.716;10.218;2022-07-29T02:02:27;26.67;;;19.55;;
32693;SDS011;19084;44.716;10.218;2022-07-29T02:07:38;25.05;;;18.73;;
32693;SDS011;19084;44.716;10.218;2022-07-29T02:10:15;23.27;;;18.42;;
32693;SDS011;19084;44.716;10.218;2022-07-29T02:12:58;22.85;;;19.67;;
32693;SDS011;19084;44.716;10.218;2022-07-29T02:15:32;24.48;;;18.77;;
32693;SDS011;19084;44.716;10.218;2022-07-29T02:18:08;22.30;;;18.17;;
32693;SDS011;19084;44.716;10.218;2022-07-29T02:20:44;24.25;;;18.48;;
32693;SDS011;19084;44.716;10.218;2022-07-29T02:23:19;23.63;;;19.58;;
32693;SDS011;19084;44.716;10.218;2022-07-29T02:25:55;21.52;;;19.23;;
32693;SDS011;19084;44.716;10.218;2022-07-29T02:28:29;23.45;;;18.88;;
32693;SDS011;19084;44.716;10.218;2022-07-29T02:31:03;23.45;;;18.70;;
32693;SDS011;19084;44.716;10.218;2022-07-29T02:33:38;22.95;;;19.52;;
32693;SDS011;19084;44.716;10.218;2022-07-29T02:36:13;23.60;;;20.13;;
32693;SDS011;19084;44.716;10.218;2022-07-29T02:38:48;24.73;;;21.75;;
32693;SDS011;19084;44.716;10.218;2022-07-29T02:41:24;25.13;;;21.45;;
32693;SDS011;19084;44.716;10.218;2022-07-29T02:44:04;23.00;;;19.83;;
32693;SDS011;19084;44.716;10.218;2022-07-29T02:46:41;22.52;;;20.23;;
32693;SDS011;19084;44.716;10.218;2022-07-29T02:49:38;25.23;;;21.60;;
32693;SDS011;19084;44.716;10.218;2022-07-29T02:52:21;23.15;;;19.50;;
32693;SDS011;19084;44.716;10.218;2022-07-29T02:55:30;22.83;;;19.42;;
32693;SDS011;19084;44.716;10.218;2022-07-29T03:00:48;24.20;;;19.30;;
32693;SDS011;19084;44.716;10.218;2022-07-29T03:06:00;22.17;;;19.10;;
32693;SDS011;19084;44.716;10.218;2022-07-29T03:08:34;22.73;;;20.05;;
32693;SDS011;19084;44.716;10.218;2022-07-29T03:11:07;25.35;;;20.55;;
32693;SDS011;19084;44.716;10.218;2022-07-29T03:13:41;28.13;;;24.00;;
32693;SDS011;19084;44.716;10.218;2022-07-29T03:16:17;26.02;;;22.58;;
32693;SDS011;19084;44.716;10.218;2022-07-29T03:18:51;26.85;;;22.00;;
32693;SDS011;19084;44.716;10.218;2022-07-29T03:21:25;26.55;;;22.35;;
32693;SDS011;19084;44.716;10.218;2022-07-29T03:23:58;23.13;;;20.00;;
32693;SDS011;19084;44.716;10.218;2022-07-29T03:26:31;22.27;;;18.60;;
32693;SDS011;19084;44.716;10.218;2022-07-29T03:29:04;23.13;;;19.65;;
32693;SDS011;19084;44.716;10.218;2022-07-29T03:31:40;24.20;;;21.25;;
32693;SDS011;19084;44.716;10.218;2022-07-29T03:34:14;21.80;;;19.48;;
32693;SDS011;19084;44.716;10.218;2022-07-29T03:36:48;28.02;;;20.70;;
32693;SDS011;19084;44.716;10.218;2022-07-29T03:39:21;23.90;;;20.88;;
32693;SDS011;19084;44.716;10.218;2022-07-29T03:41:55;24.30;;;20.03;;
32693;SDS011;19084;44.716;10.218;2022-07-29T03:44:30;23.35;;;20.33;;
32693;SDS011;19084;44.716;10.218;2022-07-29T03:47:04;23.98;;;21.33;;
32693;SDS011;19084;44.716;10.218;2022-07-29T03:49:38;25.77;;;20.33;;
32693;SDS011;19084;44.716;10.218;2022-07-29T03:52:13;25.43;;;22.67;;
32693;SDS011;19084;44.716;10.218;2022-07-29T03:54:46;25.45;;;20.58;;
32693;SDS011;19084;44.716;10.218;2022-07-29T03:57:20;23.55;;;20.30;;
32693;SDS011;19084;44.716;10.218;2022-07-29T04:02:28;23.60;;;18.88;;
32693;SDS011;19084;44.716;10.218;2022-07-29T04:05:02;25.70;;;18.50;;
32693;SDS011;19084;44.716;10.218;2022-07-29T04:07:36;19.58;;;15.25;;
32693;SDS011;19084;44.716;10.218;2022-07-29T04:10:09;19.85;;;15.15;;
32693;SDS011;19084;44.716;10.218;2022-07-29T04:12:42;14.80;;;13.02;;
32693;SDS011;19084;44.716;10.218;2022-07-29T04:15:15;17.27;;;12.38;;
32693;SDS011;19084;44.716;10.218;2022-07-29T04:17:48;16.77;;;13.55;;
32693;SDS011;19084;44.716;10.218;2022-07-29T04:20:24;14.95;;;11.38;;
32693;SDS011;19084;44.716;10.218;2022-07-29T04:22:58;16.17;;;10.98;;
32693;SDS011;19084;44.716;10.218;2022-07-29T04:25:31;12.52;;;9.88;;
32693;SDS011;19084;44.716;10.218;2022-07-29T04:28:04;15.18;;;10.40;;
32693;SDS011;19084;44.716;10.218;2022-07-29T04:30:38;11.68;;;9.68;;
32693;SDS011;19084;44.716;10.218;2022-07-29T04:33:11;13.93;;;9.68;;
32693;SDS011;19084;44.716;10.218;2022-07-29T04:35:45;11.60;;;9.48;;
32693;SDS011;19084;44.716;10.218;2022-07-29T04:38:22;14.85;;;9.27;;
32693;SDS011;19084;44.716;10.218;2022-07-29T04:40:56;12.93;;;9.20;;
32693;SDS011;19084;44.716;10.218;2022-07-29T04:43:29;11.60;;;9.88;;
32693;SDS011;19084;44.716;10.218;2022-07-29T04:46:07;12.23;;;9.23;;
32693;SDS011;19084;44.716;10.218;2022-07-29T04:48:41;19.83;;;9.98;;
32693;SDS011;19084;44.716;10.218;2022-07-29T04:51:14;12.82;;;9.02;;
32693;SDS011;19084;44.716;10.218;2022-07-29T04:53:48;13.80;;;10.00;;
32693;SDS011;19084;44.716;10.218;2022-07-29T04:56:21;14.32;;;9.68;;
32693;SDS011;19084;44.716;10.218;2022-07-29T04:58:54;15.65;;;10.23;;
32693;SDS011;19084;44.716;10.218;2022-07-29T05:01:28;14.82;;;9.70;;
32693;SDS011;19084;44.716;10.218;2022-07-29T05:04:01;14.50;;;10.02;;
32693;SDS011;19084;44.716;10.218;2022-07-29T05:06:34;13.70;;;9.68;;
32693;SDS011;19084;44.716;10.218;2022-07-29T05:09:07;12.90;;;9.55;;
32693;SDS011;19084;44.716;10.218;2022-07-29T05:11:40;19.17;;;9.68;;
32693;SDS011;19084;44.716;10.218;2022-07-29T05:14:13;12.07;;;9.95;;
32693;SDS011;19084;44.716;10.218;2022-07-29T05:16:47;12.18;;;10.30;;
32693;SDS011;19084;44.716;10.218;2022-07-29T05:21:55;15.32;;;12.75;;
32693;SDS011;19084;44.716;10.218;2022-07-29T05:24:28;14.43;;;11.45;;
32693;SDS011;19084;44.716;10.218;2022-07-29T05:27:02;15.95;;;12.15;;
32693;SDS011;19084;44.716;10.218;2022-07-29T05:29:36;15.38;;;12.82;;
32693;SDS011;19084;44.716;10.218;2022-07-29T05:32:15;17.67;;;12.65;;
32693;SDS011;19084;44.716;10.218;2022-07-29T05:34:48;15.40;;;11.57;;
32693;SDS011;19084;44.716;10.218;2022-07-29T05:37:22;18.05;;;11.18;;
32693;SDS011;19084;44.716;10.218;2022-07-29T05:39:55;13.93;;;11.27;;
32693;SDS011;19084;44.716;10.218;2022-07-29T05:42:29;17.42;;;10.70;;
32693;SDS011;19084;44.716;10.218;2022-07-29T05:45:03;12.73;;;9.68;;
32693;SDS011;19084;44.716;10.218;2022-07-29T05:47:37;12.40;;;10.02;;
32693;SDS011;19084;44.716;10.218;2022-07-29T05:50:10;13.60;;;9.80;;
32693;SDS011;19084;44.716;10.218;2022-07-29T05:52:43;12.65;;;10.23;;
32693;SDS011;19084;44.716;10.218;2022-07-29T05:55:16;14.80;;;9.70;;
32693;SDS011;19084;44.716;10.218;2022-07-29T05:57:51;13.15;;;9.43;;
32693;SDS011;19084;44.716;10.218;2022-07-29T06:00:24;15.35;;;8.85;;
32693;SDS011;19084;44.716;10.218;2022-07-29T06:03:00;11.38;;;9.52;;
32693;SDS011;19084;44.716;10.218;2022-07-29T06:05:33;18.70;;;16.10;;
32693;SDS011;19084;44.716;10.218;2022-07-29T06:08:07;18.27;;;15.02;;
32693;SDS011;19084;44.716;10.218;2022-07-29T06:10:40;17.27;;;13.50;;
32693;SDS011;19084;44.716;10.218;2022-07-29T06:13:13;17.75;;;13.63;;
32693;SDS011;19084;44.716;10.218;2022-07-29T06:15:47;17.60;;;12.90;;
32693;SDS011;19084;44.716;10.218;2022-07-29T06:18:21;18.52;;;14.23;;
32693;SDS011;19084;44.716;10.218;2022-07-29T06:20:56;20.13;;;14.97;;
32693;SDS011;19084;44.716;10.218;2022-07-29T06:23:29;18.23;;;14.82;;
32693;SDS011;19084;44.716;10.218;2022-07-29T06:26:02;19.17;;;15.85;;
32693;SDS011;19084;44.716;10.218;2022-07-29T06:28:36;20.17;;;15.63;;
32693;SDS011;19084;44.716;10.218;2022-07-29T06:31:09;17.13;;;14.75;;
32693;SDS011;19084;44.716;10.218;2022-07-29T06:33:42;21.05;;;14.75;;
32693;SDS011;19084;44.716;10.218;2022-07-29T06:36:15;20.13;;;16.85;;
32693;SDS011;19084;44.716;10.218;2022-07-29T06:38:49;18.10;;;15.70;;
32693;SDS011;19084;44.716;10.218;2022-07-29T06:41:24;25.17;;;17.88;;
32693;SDS011;19084;44.716;10.218;2022-07-29T06:43:58;25.83;;;19.83;;
32693;SDS011;19084;44.716;10.218;2022-07-29T06:46:31;23.35;;;19.20;;
32693;SDS011;19084;44.716;10.218;2022-07-29T06:49:05;24.52;;;19.33;;
32693;SDS011;19084;44.716;10.218;2022-07-29T06:51:38;22.25;;;18.77;;
32693;SDS011;19084;44.716;10.218;2022-07-29T06:54:12;26.88;;;20.67;;
32693;SDS011;19084;44.716;10.218;2022-07-29T06:56:48;31.75;;;21.60;;
32693;SDS011;19084;44.716;10.218;2022-07-29T06:59:21;24.17;;;20.38;;
32693;SDS011;19084;44.716;10.218;2022-07-29T07:02:06;17.98;;;13.70;;
32693;SDS011;19084;44.716;10.218;2022-07-29T07:04:39;15.68;;;12.85;;
32693;SDS011;19084;44.716;10.218;2022-07-29T07:07:12;17.17;;;14.57;;
32693;SDS011;19084;44.716;10.218;2022-07-29T07:09:45;18.90;;;14.45;;
32693;SDS011;19084;44.716;10.218;2022-07-29T07:12:21;17.48;;;13.18;;
32693;SDS011;19084;44.716;10.218;2022-07-29T07:14:54;14.70;;;12.32;;
32693;SDS011;19084;44.716;10.218;2022-07-29T07:17:27;20.85;;;15.18;;
32693;SDS011;19084;44.716;10.218;2022-07-29T07:20:01;16.30;;;13.65;;
32693;SDS011;19084;44.716;10.218;2022-07-29T07:22:34;18.23;;;14.50;;
32693;SDS011;19084;44.716;10.218;2022-07-29T07:27:43;14.35;;;11.93;;
32693;SDS011;19084;44.716;10.218;2022-07-29T07:30:16;17.05;;;13.77;;
32693;SDS011;19084;44.716;10.218;2022-07-29T07:32:50;15.25;;;12.70;;
32693;SDS011;19084;44.716;10.218;2022-07-29T07:35:23;16.05;;;12.13;;
32693;SDS011;19084;44.716;10.218;2022-07-29T07:37:58;17.35;;;13.57;;
32693;SDS011;19084;44.716;10.218;2022-07-29T07:40:32;14.00;;;11.32;;
32693;SDS011;19084;44.716;10.218;2022-07-29T07:43:06;15.38;;;11.63;;
32693;SDS011;19084;44.716;10.218;2022-07-29T07:45:39;16.40;;;12.63;;
32693;SDS011;19084;44.716;10.218;2022-07-29T07:48:13;14.03;;;10.40;;
32693;SDS011;19084;44.716;10.218;2022-07-29T07:50:47;15.88;;;11.10;;
32693;SDS011;19084;44.716;10.218;2022-07-29T07:53:21;15.95;;;11.80;;
32693;SDS011;19084;44.716;10.218;2022-07-29T07:55:55;14.50;;;11.10;;
32693;SDS011;19084;44.716;10.218;2022-07-29T07:58:41;14.68;;;11.48;;
32693;SDS011;19084;44.716;10.218;2022-07-29T08:01:15;14.93;;;12.55;;
32693;SDS011;19084;44.716;10.218;2022-07-29T08:04:10;16.95;;;12.95;;
32693;SDS011;19084;44.716;10.218;2022-07-29T08:06:43;14.32;;;10.40;;
32693;SDS011;19084;44.716;10.218;2022-07-29T08:09:17;15.68;;;11.88;;
32693;SDS011;19084;44.716;10.218;2022-07-29T08:12:00;16.70;;;10.77;;
32693;SDS011;19084;44.716;10.218;2022-07-29T08:14:37;11.85;;;9.93;;
32693;SDS011;19084;44.716;10.218;2022-07-29T08:17:11;13.40;;;10.85;;
32693;SDS011;19084;44.716;10.218;2022-07-29T08:19:44;14.70;;;10.57;;
32693;SDS011;19084;44.716;10.218;2022-07-29T08:22:18;11.25;;;9.60;;
32693;SDS011;19084;44.716;10.218;2022-07-29T08:24:51;16.88;;;9.85;;
32693;SDS011;19084;44.716;10.218;2022-07-29T08:27:26;14.05;;;8.68;;
32693;SDS011;19084;44.716;10.218;2022-07-29T08:30:18;14.15;;;10.18;;
32693;SDS011;19084;44.716;10.218;2022-07-29T08:32:52;11.98;;;8.63;;
32693;SDS011;19084;44.716;10.218;2022-07-29T08:35:27;13.82;;;9.23;;
32693;SDS011;19084;44.716;10.218;2022-07-29T08:38:06;10.15;;;8.48;;
32693;SDS011;19084;44.716;10.218;2022-07-29T08:40:39;12.18;;;8.98;;
32693;SDS011;19084;44.716;10.218;2022-07-29T08:43:15;17.33;;;9.02;;
32693;SDS011;19084;44.716;10.218;2022-07-29T08:45:49;13.43;;;8.85;;
32693;SDS011;19084;44.716;10.218;2022-07-29T08:48:23;11.52;;;7.80;;
32693;SDS011;19084;44.716;10.218;2022-07-29T08:51:00;12.75;;;8.10;;
32693;SDS011;19084;44.716;10.218;2022-07-29T08:53:35;12.30;;;8.15;;
32693;SDS011;19084;44.716;10.218;2022-07-29T08:56:17;13.25;;;8.98;;
32693;SDS011;19084;44.716;10.218;2022-07-29T09:10:47;14.80;;;7.55;;
32693;SDS011;19084;44.716;10.218;2022-07-29T09:13:20;14.07;;;7.95;;
32693;SDS011;19084;44.716;10.218;2022-07-29T09:15:54;14.23;;;9.13;;
32693;SDS011;19084;44.716;10.218;2022-07-29T09:18:37;13.57;;;10.13;;
32693;SDS011;19084;44.716;10.218;2022-07-29T09:21:13;11.50;;;7.18;;
32693;SDS011;19084;44.716;10.218;2022-07-29T09:24:07;13.27;;;8.98;;
32693;SDS011;19084;44.716;10.218;2022-07-29T09:42:28;13.35;;;8.20;;
32693;SDS011;19084;44.716;10.218;2022-07-29T09:48:42;14.82;;;9.02;;
32693;SDS011;19084;44.716;10.218;2022-07-29T09:51:19;12.82;;;8.02;;
32693;SDS011;19084;44.716;10.218;2022-07-29T09:57:49;13.57;;;8.48;;
32693;SDS011;19084;44.716;10.218;2022-07-29T10:00:21;11.13;;;7.80;;
32693;SDS011;19084;44.716;10.218;2022-07-29T10:02:58;15.20;;;10.52;;
32693;SDS011;19084;44.716;10.218;2022-07-29T10:05:33;15.73;;;9.52;;
32693;SDS011;19084;44.716;10.218;2022-07-29T10:08:07;13.05;;;9.10;;
32693;SDS011;19084;44.716;10.218;2022-07-29T10:10:42;12.70;;;8.85;;
32693;SDS011;19084;44.716;10.218;2022-07-29T10:13:15;12.82;;;7.93;;
32693;SDS011;19084;44.716;10.218;2022-07-29T10:23:14;13.70;;;8.88;;
32693;SDS011;19084;44.716;10.218;2022-07-29T10:25:47;12.07;;;9.07;;
32693;SDS011;19084;44.716;10.218;2022-07-29T10:28:21;16.25;;;12.57;;
32693;SDS011;19084;44.716;10.218;2022-07-29T10:34:34;17.23;;;13.10;;
32693;SDS011;19084;44.716;10.218;2022-07-29T10:37:33;15.30;;;13.52;;
32693;SDS011;19084;44.716;10.218;2022-07-29T10:43:29;16.88;;;11.43;;
32693;SDS011;19084;44.716;10.218;2022-07-29T10:46:46;15.00;;;10.90;;
32693;SDS011;19084;44.716;10.218;2022-07-29T10:55:53;12.55;;;8.98;;
32693;SDS011;19084;44.716;10.218;2022-07-29T10:58:21;15.05;;;9.45;;
32693;SDS011;19084;44.716;10.218;2022-07-29T11:00:56;13.60;;;11.32;;
32693;SDS011;19084;44.716;10.218;2022-07-29T11:03:42;12.43;;;9.70;;
32693;SDS011;19084;44.716;10.218;2022-07-29T11:07:06;15.75;;;8.68;;
32693;SDS011;19084;44.716;10.218;2022-07-29T11:09:40;12.25;;;7.20;;
32693;SDS011;19084;44.716;10.218;2022-07-29T11:15:59;11.65;;;7.47;;
32693;SDS011;19084;44.716;10.218;2022-07-29T11:22:00;10.43;;;7.50;;
32693;SDS011;19084;44.716;10.218;2022-07-29T11:24:37;13.50;;;7.03;;
32693;SDS011;19084;44.716;10.218;2022-07-29T11:28:08;12.18;;;9.82;;
32693;SDS011;19084;44.716;10.218;2022-07-29T11:30:56;10.95;;;7.07;;
32693;SDS011;19084;44.716;10.218;2022-07-29T11:33:33;10.13;;;7.03;;
32693;SDS011;19084;44.716;10.218;2022-07-29T11:36:27;9.75;;;6.68;;
32693;SDS011;19084;44.716;10.218;2022-07-29T11:45:05;14.20;;;6.40;;
32693;SDS011;19084;44.716;10.218;2022-07-29T11:48:17;8.52;;;5.72;;
32693;SDS011;19084;44.716;10.218;2022-07-29T11:51:57;9.05;;;5.95;;
32693;SDS011;19084;44.716;10.218;2022-07-29T11:54:34;8.88;;;5.82;;
32693;SDS011;19084;44.716;10.218;2022-07-29T11:57:29;9.77;;;5.18;;
32693;SDS011;19084;44.716;10.218;2022-07-29T12:00:37;9.15;;;5.03;;
32693;SDS011;19084;44.716;10.218;2022-07-29T12:03:12;10.43;;;6.47;;
32693;SDS011;19084;44.716;10.218;2022-07-29T12:07:30;9.18;;;4.18;;
32693;SDS011;19084;44.716;10.218;2022-07-29T12:10:09;8.23;;;4.05;;
32693;SDS011;19084;44.716;10.218;2022-07-29T12:13:00;7.28;;;4.07;;
32693;SDS011;19084;44.716;10.218;2022-07-29T12:15:33;8.05;;;4.88;;
32693;SDS011;19084;44.716;10.218;2022-07-29T12:18:57;7.72;;;4.07;;
32693;SDS011;19084;44.716;10.218;2022-07-29T12:25:50;7.68;;;4.05;;
32693;SDS011;19084;44.716;10.218;2022-07-29T12:28:27;7.55;;;3.90;;
32693;SDS011;19084;44.716;10.218;2022-07-29T12:31:01;11.97;;;4.07;;
32693;SDS011;19084;44.716;10.218;2022-07-29T12:36:41;8.30;;;4.20;;
32693;SDS011;19084;44.716;10.218;2022-07-29T12:39:18;9.40;;;3.55;;
32693;SDS011;19084;44.716;10.218;2022-07-29T12:41:57;7.65;;;4.13;;
32693;SDS011;19084;44.716;10.218;2022-07-29T12:47:50;8.63;;;4.30;;
32693;SDS011;19084;44.716;10.218;2022-07-29T12:50:25;9.88;;;4.15;;
32693;SDS011;19084;44.716;10.218;2022-07-29T12:53:11;6.28;;;3.60;;
32693;SDS011;19084;44.716;10.218;2022-07-29T12:56:09;9.10;;;4.55;;
32693;SDS011;19084;44.716;10.218;2022-07-29T12:59:16;10.40;;;4.18;;
32693;SDS011;19084;44.716;10.218;2022-07-29T13:21:39;12.65;;;4.65;;
32693;SDS011;19084;44.716;10.218;2022-07-29T13:27:51;23.63;;;6.28;;
32693;SDS011;19084;44.716;10.218;2022-07-29T13:33:24;22.73;;;10.32;;
32693;SDS011;19084;44.716;10.218;2022-07-29T13:35:58;31.50;;;13.63;;
32693;SDS011;19084;44.716;10.218;2022-07-29T13:38:31;29.80;;;13.80;;
32693;SDS011;19084;44.716;10.218;2022-07-29T13:41:06;30.75;;;13.05;;
32693;SDS011;19084;44.716;10.218;2022-07-29T13:43:39;15.57;;;6.72;;
32693;SDS011;19084;44.716;10.218;2022-07-29T13:46:13;16.73;;;11.95;;
32693;SDS011;19084;44.716;10.218;2022-07-29T13:48:51;14.82;;;10.30;;
32693;SDS011;19084;44.716;10.218;2022-07-29T13:51:24;16.20;;;11.48;;
32693;SDS011;19084;44.716;10.218;2022-07-29T13:53:58;14.45;;;11.82;;
32693;SDS011;19084;44.716;10.218;2022-07-29T13:56:35;16.95;;;9.80;;
32693;SDS011;19084;44.716;10.218;2022-07-29T13:59:09;11.45;;;8.82;;
32693;SDS011;19084;44.716;10.218;2022-07-29T14:01:43;12.68;;;9.90;;
32693;SDS011;19084;44.716;10.218;2022-07-29T14:04:17;17.60;;;10.65;;
32693;SDS011;19084;44.716;10.218;2022-07-29T14:06:51;14.27;;;11.23;;
32693;SDS011;19084;44.716;10.218;2022-07-29T14:09:24;16.73;;;10.98;;
32693;SDS011;19084;44.716;10.218;2022-07-29T14:11:58;19.33;;;12.30;;
32693;SDS011;19084;44.716;10.218;2022-07-29T14:14:32;16.85;;;11.98;;
32693;SDS011;19084;44.716;10.218;2022-07-29T14:17:07;12.70;;;9.50;;
32693;SDS011;19084;44.716;10.218;2022-07-29T14:19:41;9.20;;;5.55;;
32693;SDS011;19084;44.716;10.218;2022-07-29T14:22:15;8.68;;;5.07;;
32693;SDS011;19084;44.716;10.218;2022-07-29T14:24:57;9.70;;;5.05;;
32693;SDS011;19084;44.716;10.218;2022-07-29T14:27:38;10.77;;;4.03;;
32693;SDS011;19084;44.716;10.218;2022-07-29T14:30:13;8.32;;;5.00;;
32693;SDS011;19084;44.716;10.218;2022-07-29T14:32:46;7.25;;;4.55;;
32693;SDS011;19084;44.716;10.218;2022-07-29T14:35:19;10.05;;;5.05;;
32693;SDS011;19084;44.716;10.218;2022-07-29T14:37:52;7.88;;;5.03;;
32693;SDS011;19084;44.716;10.218;2022-07-29T14:40:25;8.15;;;5.47;;
32693;SDS011;19084;44.716;10.218;2022-07-29T14:42:59;9.02;;;6.35;;
32693;SDS011;19084;44.716;10.218;2022-07-29T14:45:33;9.55;;;6.05;;
32693;SDS011;19084;44.716;10.218;2022-07-29T14:48:06;9.93;;;7.05;;
32693;SDS011;19084;44.716;10.218;2022-07-29T14:50:40;12.80;;;7.47;;
32693;SDS011;19084;44.716;10.218;2022-07-29T14:53:14;14.25;;;8.73;;
32693;SDS011;19084;44.716;10.218;2022-07-29T14:55:47;12.05;;;8.63;;
32693;SDS011;19084;44.716;10.218;2022-07-29T14:58:21;11.90;;;8.98;;
32693;SDS011;19084;44.716;10.218;2022-07-29T15:00:55;16.55;;;9.23;;
32693;SDS011;19084;44.716;10.218;2022-07-29T15:03:28;11.77;;;7.95;;
32693;SDS011;19084;44.716;10.218;2022-07-29T15:06:04;11.60;;;7.70;;
32693;SDS011;19084;44.716;10.218;2022-07-29T15:08:37;13.90;;;8.32;;
32693;SDS011;19084;44.716;10.218;2022-07-29T15:11:10;9.50;;;6.53;;
32693;SDS011;19084;44.716;10.218;2022-07-29T15:13:43;9.27;;;6.22;;
32693;SDS011;19084;44.716;10.218;2022-07-29T15:16:16;9.73;;;5.30;;
32693;SDS011;19084;44.716;10.218;2022-07-29T15:18:50;8.38;;;5.10;;
32693;SDS011;19084;44.716;10.218;2022-07-29T15:21:24;8.77;;;5.22;;
32693;SDS011;19084;44.716;10.218;2022-07-29T15:23:57;8.48;;;5.00;;
32693;SDS011;19084;44.716;10.218;2022-07-29T15:26:30;10.23;;;4.90;;
32693;SDS011;19084;44.716;10.218;2022-07-29T15:29:05;9.33;;;5.20;;
32693;SDS011;19084;44.716;10.218;2022-07-29T15:31:39;7.18;;;4.35;;
32693;SDS011;19084;44.716;10.218;2022-07-29T15:34:12;7.35;;;4.38;;
32693;SDS011;19084;44.716;10.218;2022-07-29T15:36:49;7.10;;;4.45;;
32693;SDS011;19084;44.716;10.218;2022-07-29T15:39:24;7.80;;;4.22;;
32693;SDS011;19084;44.716;10.218;2022-07-29T15:41:58;7.55;;;4.40;;
32693;SDS011;19084;44.716;10.218;2022-07-29T15:44:32;7.00;;;4.45;;
32693;SDS011;19084;44.716;10.218;2022-07-29T15:47:06;7.75;;;4.70;;
32693;SDS011;19084;44.716;10.218;2022-07-29T15:49:40;7.40;;;4.35;;
32693;SDS011;19084;44.716;10.218;2022-07-29T15:52:20;8.20;;;4.25;;
32693;SDS011;19084;44.716;10.218;2022-07-29T15:54:58;8.48;;;4.82;;
32693;SDS011;19084;44.716;10.218;2022-07-29T15:57:31;6.75;;;4.38;;
32693;SDS011;19084;44.716;10.218;2022-07-29T16:00:04;7.97;;;4.00;;
32693;SDS011;19084;44.716;10.218;2022-07-29T16:05:15;8.10;;;4.47;;
32693;SDS011;19084;44.716;10.218;2022-07-29T16:10:23;6.85;;;4.05;;
32693;SDS011;19084;44.716;10.218;2022-07-29T16:12:56;8.70;;;4.65;;
32693;SDS011;19084;44.716;10.218;2022-07-29T16:15:29;6.90;;;4.50;;
32693;SDS011;19084;44.716;10.218;2022-07-29T16:18:02;8.38;;;4.72;;
32693;SDS011;19084;44.716;10.218;2022-07-29T16:20:41;8.30;;;4.30;;
32693;SDS011;19084;44.716;10.218;2022-07-29T16:23:14;9.05;;;4.28;;
32693;SDS011;19084;44.716;10.218;2022-07-29T16:25:47;7.60;;;4.00;;
32693;SDS011;19084;44.716;10.218;2022-07-29T16:28:31;7.50;;;4.10;;
32693;SDS011;19084;44.716;10.218;2022-07-29T16:31:04;10.95;;;4.97;;
32693;SDS011;19084;44.716;10.218;2022-07-29T16:33:37;7.47;;;6.22;;
32693;SDS011;19084;44.716;10.218;2022-07-29T16:36:26;7.10;;;4.13;;
32693;SDS011;19084;44.716;10.218;2022-07-29T16:39:01;7.20;;;5.18;;
32693;SDS011;19084;44.716;10.218;2022-07-29T16:41:36;8.35;;;4.53;;
32693;SDS011;19084;44.716;10.218;2022-07-29T16:44:09;7.32;;;4.10;;
32693;SDS011;19084;44.716;10.218;2022-07-29T16:46:43;8.85;;;4.22;;
32693;SDS011;19084;44.716;10.218;2022-07-29T16:49:17;9.15;;;4.57;;
32693;SDS011;19084;44.716;10.218;2022-07-29T16:51:52;7.43;;;4.25;;
32693;SDS011;19084;44.716;10.218;2022-07-29T16:54:28;6.68;;;3.88;;
32693;SDS011;19084;44.716;10.218;2022-07-29T16:57:01;8.75;;;4.55;;
32693;SDS011;19084;44.716;10.218;2022-07-29T16:59:34;7.82;;;4.35;;
32693;SDS011;19084;44.716;10.218;2022-07-29T17:02:14;9.50;;;5.05;;
32693;SDS011;19084;44.716;10.218;2022-07-29T17:04:47;9.23;;;4.97;;
32693;SDS011;19084;44.716;10.218;2022-07-29T17:07:20;7.55;;;4.72;;
32693;SDS011;19084;44.716;10.218;2022-07-29T17:09:53;6.63;;;4.43;;
32693;SDS011;19084;44.716;10.218;2022-07-29T17:12:34;7.40;;;5.10;;
32693;SDS011;19084;44.716;10.218;2022-07-29T17:15:09;7.63;;;4.72;;
32693;SDS011;19084;44.716;10.218;2022-07-29T17:20:27;8.30;;;4.82;;
32693;SDS011;19084;44.716;10.218;2022-07-29T17:23:00;9.75;;;5.35;;
32693;SDS011;19084;44.716;10.218;2022-07-29T17:25:33;8.45;;;6.03;;
32693;SDS011;19084;44.716;10.218;2022-07-29T17:28:06;9.82;;;5.70;;
32693;SDS011;19084;44.716;10.218;2022-07-29T17:30:39;8.18;;;5.15;;
32693;SDS011;19084;44.716;10.218;2022-07-29T17:33:12;7.75;;;4.90;;
32693;SDS011;19084;44.716;10.218;2022-07-29T17:35:45;11.55;;;5.03;;
32693;SDS011;19084;44.716;10.218;2022-07-29T17:38:36;10.07;;;5.25;;